Time;durP1;ratioP1;P1;durP2;ratioP2;P2;SDS_P1;SDS_P2;PMS_P1;PMS_P2;Temp;Humidity;BMP_temperature;BMP_pressure;BME280_temperature;BME280_humidity;BME280_pressure;Samples;Min_cycle;Max_cycle;Signal;HPM_P1;HPM_P2
2023/08/20 06:17:26;;;;;;;;;2.00;2.00;;;;;;;;5412851;22;45861;-78
2023/08/20 06:19:51;;;;;;;;;3.00;3.00;;;;;;;;5036248;28;45442;-78
2023/08/20 06:22:17;;;;;;;;;6.67;4.67;;;;;;;;5024137;28;45421;-79
2023/08/20 06:24:42;;;;;;;;;6.00;4.00;;;;;;;;5035697;28;45458;-76
2023/08/20 06:27:07;;;;;;;;;4.00;2.67;;;;;;;;5031777;28;45657;-77
2023/08/20 06:29:32;;;;;;;;;5.33;3.33;;;;;;;;5050833;28;45501;-77
2023/08/20 06:31:58;;;;;;;;;6.00;4.00;;;;;;;;5040027;28;45431;-73
2023/08/20 06:34:23;;;;;;;;;5.00;4.00;;;;;;;;5042293;28;45375;-75
2023/08/20 06:36:48;;;;;;;;;7.67;4.00;;;;;;;;5036002;28;45303;-75
2023/08/20 06:39:15;;;;;;;;;4.33;3.00;;;;;;;;5038014;28;46443;-74
2023/08/20 06:41:40;;;;;;;;;6.00;5.00;;;;;;;;5035322;28;45454;-74
2023/08/20 06:44:05;;;;;;;;;4.67;3.33;;;;;;;;5039799;28;45501;-74
2023/08/20 06:46:30;;;;;;;;;5.33;5.00;;;;;;;;5040854;28;45421;-74
2023/08/20 06:48:55;;;;;;;;;5.00;4.00;;;;;;;;5042603;28;46472;-75
2023/08/20 06:51:21;;;;;;;;;6.00;4.00;;;;;;;;5036765;28;45505;-74
2023/08/20 06:53:46;;;;;;;;;4.75;3.00;;;;;;;;5046170;28;45309;-74
2023/08/20 06:56:12;;;;;;;;;4.00;4.00;;;;;;;;5043851;28;45481;-74
2023/08/20 06:58:41;;;;;;;;;4.25;4.25;;;;;;;;5037464;28;48078;-76
2023/08/20 07:01:09;;;;;;;;;3.00;3.00;;;;;;;;5036487;28;45231;-75
2023/08/20 07:03:39;;;;;;;;;4.00;2.50;;;;;;;;5026981;28;45480;-77
2023/08/20 07:06:04;;;;;;;;;4.00;4.00;;;;;;;;5036475;28;45437;-76
2023/08/20 07:08:29;;;;;;;;;1.50;1.50;;;;;;;;5026376;28;48075;-76
2023/08/20 07:10:55;;;;;;;;;4.25;4.00;;;;;;;;5031829;28;46101;-77
2023/08/20 07:13:20;;;;;;;;;5.00;3.00;;;;;;;;5030934;28;45336;-76
2023/08/20 07:15:45;;;;;;;;;4.25;3.25;;;;;;;;5035010;28;45343;-76
2023/08/20 07:18:13;;;;;;;;;6.00;4.00;;;;;;;;5040670;28;45399;-74
2023/08/20 07:20:38;;;;;;;;;5.00;5.00;;;;;;;;5044512;28;45665;-75
2023/08/20 07:23:03;;;;;;;;;3.75;2.75;;;;;;;;5032577;28;45411;-74
2023/08/20 07:25:28;;;;;;;;;3.00;3.00;;;;;;;;5040666;28;46371;-75
2023/08/20 07:27:59;;;;;;;;;3.50;3.50;;;;;;;;5041691;28;45302;-74
2023/08/20 07:30:24;;;;;;;;;4.60;3.80;;;;;;;;5048840;28;45602;-74
2023/08/20 07:32:49;;;;;;;;;7.25;3.75;;;;;;;;5035522;28;47330;-73
2023/08/20 07:35:14;;;;;;;;;6.75;4.25;;;;;;;;5033103;28;45614;-72
2023/08/20 07:37:39;;;;;;;;;3.00;3.00;;;;;;;;5038884;28;45732;-73
2023/08/20 07:40:05;;;;;;;;;3.00;3.00;;;;;;;;5051367;28;45330;-73
2023/08/20 07:42:30;;;;;;;;;4.25;3.50;;;;;;;;5034706;28;45363;-74
2023/08/20 07:44:55;;;;;;;;;5.00;5.00;;;;;;;;5038376;28;45368;-73
2023/08/20 07:47:20;;;;;;;;;7.50;4.25;;;;;;;;5036647;28;45426;-74
2023/08/20 07:49:45;;;;;;;;;6.00;4.75;;;;;;;;5039425;28;45454;-74
2023/08/20 07:52:11;;;;;;;;;5.50;4.25;;;;;;;;5041315;28;45520;-74
2023/08/20 07:54:36;;;;;;;;;4.00;4.00;;;;;;;;5052268;28;45411;-74
2023/08/20 07:57:01;;;;;;;;;8.00;4.00;;;;;;;;5041004;28;45366;-72
2023/08/20 07:59:26;;;;;;;;;5.00;4.00;;;;;;;;5049162;28;45306;-74
2023/08/20 08:01:52;;;;;;;;;4.00;4.00;;;;;;;;5041106;28;45677;-74
2023/08/20 08:04:17;;;;;;;;;3.75;1.00;;;;;;;;5045298;28;45563;-74
2023/08/20 08:06:42;;;;;;;;;6.00;4.00;;;;;;;;5042874;28;46162;-76
2023/08/20 08:09:21;;;;;;;;;5.00;3.25;;;;;;;;5038656;28;45331;-74
2023/08/20 08:11:46;;;;;;;;;3.80;3.20;;;;;;;;5042365;28;45323;-74
2023/08/20 08:14:12;;;;;;;;;3.50;3.50;;;;;;;;5041056;28;45224;-73
2023/08/20 08:16:37;;;;;;;;;4.25;4.25;;;;;;;;5040818;28;45737;-73
2023/08/20 08:19:02;;;;;;;;;4.00;3.75;;;;;;;;5032953;28;45337;-73
2023/08/20 08:21:27;;;;;;;;;4.25;4.25;;;;;;;;5038428;28;45739;-74
2023/08/20 08:23:53;;;;;;;;;8.25;5.00;;;;;;;;5031866;28;45371;-73
2023/08/20 08:26:18;;;;;;;;;5.75;4.75;;;;;;;;5048441;28;48102;-74
2023/08/20 08:28:43;;;;;;;;;5.75;3.25;;;;;;;;5035738;28;45457;-74
2023/08/20 08:31:08;;;;;;;;;3.75;3.00;;;;;;;;5051040;28;45642;-74
2023/08/20 08:33:33;;;;;;;;;6.25;5.00;;;;;;;;5035611;28;45461;-74
2023/08/20 08:35:58;;;;;;;;;5.00;5.00;;;;;;;;5042829;28;45481;-74
2023/08/20 08:38:24;;;;;;;;;4.25;4.25;;;;;;;;5039452;28;45435;-74
2023/08/20 08:40:49;;;;;;;;;4.50;4.00;;;;;;;;5049763;28;45338;-74
2023/08/20 08:43:16;;;;;;;;;3.50;2.50;;;;;;;;5040330;28;45423;-74
2023/08/20 08:45:44;;;;;;;;;5.40;5.00;;;;;;;;5036174;28;45528;-73
2023/08/20 08:48:10;;;;;;;;;3.00;3.00;;;;;;;;5036995;28;45740;-74
2023/08/20 08:50:35;;;;;;;;;5.00;4.25;;;;;;;;5053682;28;45195;-74
2023/08/20 08:53:00;;;;;;;;;5.25;5.25;;;;;;;;5039260;28;47134;-74
2023/08/20 08:55:25;;;;;;;;;10.00;7.25;;;;;;;;5053966;28;45358;-74
2023/08/20 08:57:51;;;;;;;;;5.50;3.75;;;;;;;;5040940;28;45388;-74
2023/08/20 09:00:16;;;;;;;;;3.00;3.00;;;;;;;;5054141;28;45318;-74
2023/08/20 09:02:42;;;;;;;;;3.75;3.75;;;;;;;;5042167;28;45265;-75
2023/08/20 09:05:07;;;;;;;;;6.50;4.00;;;;;;;;5043821;28;45440;-73
2023/08/20 09:07:32;;;;;;;;;5.50;5.50;;;;;;;;5041619;28;45395;-74
2023/08/20 09:10:00;;;;;;;;;4.80;4.80;;;;;;;;5042980;28;45413;-73
2023/08/20 09:12:25;;;;;;;;;3.60;1.40;;;;;;;;5034200;28;45563;-74
2023/08/20 09:14:51;;;;;;;;;4.25;4.25;;;;;;;;5044824;28;45476;-74
2023/08/20 09:17:16;;;;;;;;;3.60;3.40;;;;;;;;5043466;28;45307;-74
2023/08/20 09:19:43;;;;;;;;;4.00;4.00;;;;;;;;5033572;28;45355;-73
2023/08/20 09:22:08;;;;;;;;;4.80;4.00;;;;;;;;5047287;28;45501;-74
2023/08/20 09:24:34;;;;;;;;;5.25;4.00;;;;;;;;5047596;28;45468;-74
2023/08/20 09:27:02;;;;;;;;;6.40;6.00;;;;;;;;5041313;28;45487;-74
2023/08/20 09:29:28;;;;;;;;;9.00;7.80;;;;;;;;5040438;28;45359;-73
2023/08/20 09:31:59;;;;;;;;;12.75;12.75;;;;;;;;5043593;28;45391;-73
2023/08/20 09:34:26;;;;;;;;;3.60;3.60;;;;;;;;5042406;28;46554;-74
2023/08/20 09:36:51;;;;;;;;;12.40;11.00;;;;;;;;5038103;28;45430;-73
2023/08/20 09:39:16;;;;;;;;;4.00;4.00;;;;;;;;5044070;28;45338;-73
2023/08/20 09:41:45;;;;;;;;;3.00;3.00;;;;;;;;5041576;28;45720;-75
2023/08/20 09:44:11;;;;;;;;;4.40;3.20;;;;;;;;5039496;28;46844;-74
2023/08/20 09:46:37;;;;;;;;;4.40;4.40;;;;;;;;5042583;28;45488;-74
2023/08/20 09:49:03;;;;;;;;;5.50;4.00;;;;;;;;5039954;28;45536;-75
2023/08/20 09:51:33;;;;;;;;;3.40;3.40;;;;;;;;5042018;28;45450;-75
2023/08/20 09:54:01;;;;;;;;;4.40;3.60;;;;;;;;5042038;28;48491;-74
2023/08/20 09:56:36;;;;;;;;;2.20;2.20;;;;;;;;5028729;28;45359;-74
2023/08/20 09:59:01;;;;;;;;;4.80;3.80;;;;;;;;5038710;28;45399;-75
2023/08/20 10:01:27;;;;;;;;;3.75;3.75;;;;;;;;5037016;28;45343;-72
2023/08/20 10:03:52;;;;;;;;;7.00;5.00;;;;;;;;5039385;28;45575;-75
2023/08/20 10:06:18;;;;;;;;;4.25;3.25;;;;;;;;5038230;28;45319;-75
2023/08/20 10:08:45;;;;;;;;;6.00;6.00;;;;;;;;5045648;28;45288;-75
2023/08/20 10:11:11;;;;;;;;;6.60;5.60;;;;;;;;5045092;28;45401;-75
2023/08/20 10:13:36;;;;;;;;;2.75;2.75;;;;;;;;5033827;28;46835;-73
2023/08/20 10:16:02;;;;;;;;;4.25;4.25;;;;;;;;5046454;28;45450;-74
2023/08/20 10:18:27;;;;;;;;;2.00;2.00;;;;;;;;5036774;28;45554;-75
2023/08/20 10:20:53;;;;;;;;;3.50;2.00;;;;;;;;5041956;28;45425;-74
2023/08/20 10:23:24;;;;;;;;;4.00;4.00;;;;;;;;5045964;28;45443;-74
2023/08/20 10:25:51;;;;;;;;;4.00;4.00;;;;;;;;5049947;28;45752;-74
2023/08/20 10:28:24;;;;;;;;;2.00;2.00;;;;;;;;5034465;28;45424;-74
2023/08/20 10:31:08;;;;;;;;;6.80;4.00;;;;;;;;5046538;28;45513;-76
2023/08/20 10:33:33;;;;;;;;;3.00;3.00;;;;;;;;5036803;28;45329;-75
2023/08/20 10:36:07;;;;;;;;;2.00;2.00;;;;;;;;5047703;28;45346;-75
2023/08/20 10:38:35;;;;;;;;;2.60;2.60;;;;;;;;5037335;28;45389;-75
2023/08/20 10:41:00;;;;;;;;;3.40;3.40;;;;;;;;5040178;28;45795;-75
2023/08/20 10:43:26;;;;;;;;;3.75;3.75;;;;;;;;5037001;28;45408;-74
2023/08/20 10:46:09;;;;;;;;;2.00;2.00;;;;;;;;5047227;28;45323;-75
2023/08/20 10:48:36;;;;;;;;;5.80;4.20;;;;;;;;5039292;28;45600;-75
2023/08/20 10:51:11;;;;;;;;;5.80;3.20;;;;;;;;5047724;28;45378;-76
2023/08/20 10:53:36;;;;;;;;;2.00;2.00;;;;;;;;5043636;28;45567;-75
2023/08/20 10:56:12;;;;;;;;;6.50;3.75;;;;;;;;5048133;28;45448;-74
2023/08/20 10:58:46;;;;;;;;;5.00;3.80;;;;;;;;5043942;28;45228;-75
2023/08/20 11:01:13;;;;;;;;;3.40;2.80;;;;;;;;5045739;28;45313;-75
2023/08/20 11:03:39;;;;;;;;;5.80;4.20;;;;;;;;5035017;28;45278;-75
2023/08/20 11:06:04;;;;;;;;;3.00;3.00;;;;;;;;5048036;28;45411;-75
2023/08/20 11:08:29;;;;;;;;;4.00;4.00;;;;;;;;5040772;28;45710;-74
2023/08/20 11:10:54;;;;;;;;;4.00;4.00;;;;;;;;5048840;28;45505;-74
2023/08/20 11:13:20;;;;;;;;;4.50;2.50;;;;;;;;5038891;28;45750;-73
2023/08/20 11:15:45;;;;;;;;;4.75;4.75;;;;;;;;5051637;28;45631;-73
2023/08/20 11:18:11;;;;;;;;;4.50;4.00;;;;;;;;5040169;28;45421;-74
2023/08/20 11:20:36;;;;;;;;;4.00;4.00;;;;;;;;5046024;28;45442;-75
2023/08/20 11:23:01;;;;;;;;;3.00;3.00;;;;;;;;5042049;28;47378;-74
2023/08/20 11:25:27;;;;;;;;;4.25;3.50;;;;;;;;5052368;28;45338;-74
2023/08/20 11:27:52;;;;;;;;;3.50;3.50;;;;;;;;5034561;28;46413;-73
2023/08/20 11:30:18;;;;;;;;;3.50;3.25;;;;;;;;5046643;28;45569;-74
2023/08/20 11:32:45;;;;;;;;;4.00;3.00;;;;;;;;5038538;28;46303;-74
2023/08/20 11:35:11;;;;;;;;;3.20;3.20;;;;;;;;5040423;28;45362;-74
2023/08/20 11:37:36;;;;;;;;;3.00;3.00;;;;;;;;5037393;28;45546;-74
2023/08/20 11:40:01;;;;;;;;;3.00;3.00;;;;;;;;5047324;28;45355;-74
2023/08/20 11:42:26;;;;;;;;;4.50;2.50;;;;;;;;5030003;28;45400;-73
2023/08/20 11:44:55;;;;;;;;;8.75;8.50;;;;;;;;5048772;28;45411;-74
2023/08/20 11:47:20;;;;;;;;;3.80;3.80;;;;;;;;5034265;28;45312;-74
2023/08/20 11:49:45;;;;;;;;;3.25;3.25;;;;;;;;5049421;28;45410;-74
2023/08/20 11:52:13;;;;;;;;;3.50;2.50;;;;;;;;5037831;28;45308;-74
2023/08/20 11:54:38;;;;;;;;;4.40;2.60;;;;;;;;5050518;28;45276;-73
2023/08/20 11:57:04;;;;;;;;;2.00;2.00;;;;;;;;5042264;28;45341;-74
2023/08/20 11:59:29;;;;;;;;;4.00;2.80;;;;;;;;5054293;28;45350;-74
2023/08/20 12:01:56;;;;;;;;;4.00;4.00;;;;;;;;5037835;28;45505;-74
2023/08/20 12:04:25;;;;;;;;;2.40;2.40;;;;;;;;5046706;28;45494;-74
2023/08/20 12:07:02;;;;;;;;;2.00;2.00;;;;;;;;5040215;28;45437;-73
2023/08/20 12:09:27;;;;;;;;;3.40;3.20;;;;;;;;5045307;28;45409;-73
2023/08/20 12:11:55;;;;;;;;;2.50;2.50;;;;;;;;5045601;28;46611;-74
2023/08/20 12:14:21;;;;;;;;;3.40;3.40;;;;;;;;5044155;28;45298;-73
2023/08/20 12:16:46;;;;;;;;;2.00;2.00;;;;;;;;5047228;28;45472;-74
2023/08/20 12:19:12;;;;;;;;;2.50;2.00;;;;;;;;5037869;28;45378;-74
2023/08/20 12:21:37;;;;;;;;;1.50;1.50;;;;;;;;5045564;28;46780;-74
2023/08/20 12:24:04;;;;;;;;;3.25;1.50;;;;;;;;5045085;28;45280;-74
2023/08/20 12:26:29;;;;;;;;;2.00;2.00;;;;;;;;5046901;28;45490;-75
2023/08/20 12:28:54;;;;;;;;;1.25;1.25;;;;;;;;5039489;28;45938;-75
2023/08/20 12:31:20;;;;;;;;;3.00;2.00;;;;;;;;5048180;28;45491;-74
2023/08/20 12:33:45;;;;;;;;;1.00;1.00;;;;;;;;5030013;28;45632;-74
2023/08/20 12:36:10;;;;;;;;;3.25;2.50;;;;;;;;5037215;28;45253;-74
2023/08/20 12:38:35;;;;;;;;;2.75;1.50;;;;;;;;5042166;28;45638;-74
2023/08/20 12:41:01;;;;;;;;;3.00;1.50;;;;;;;;5049445;28;46349;-74
2023/08/20 12:43:26;;;;;;;;;4.75;2.00;;;;;;;;5040679;28;45664;-75
2023/08/20 12:45:52;;;;;;;;;14.50;14.50;;;;;;;;5039411;28;45275;-75
2023/08/20 12:48:17;;;;;;;;;3.50;2.00;;;;;;;;5031626;28;45386;-74
2023/08/20 12:50:42;;;;;;;;;9.25;6.50;;;;;;;;5037393;28;46197;-73
2023/08/20 12:53:07;;;;;;;;;1.00;1.00;;;;;;;;5031961;28;45442;-74
2023/08/20 12:55:32;;;;;;;;;0.00;0.00;;;;;;;;5038038;28;45330;-75
2023/08/20 12:57:58;;;;;;;;;2.25;2.25;;;;;;;;5034200;28;45318;-74
2023/08/20 13:00:27;;;;;;;;;2.50;2.50;;;;;;;;5041875;28;45547;-75
2023/08/20 13:02:53;;;;;;;;;0.60;0.60;;;;;;;;5034111;28;45331;-75
2023/08/20 13:05:19;;;;;;;;;2.80;2.20;;;;;;;;5041910;28;45237;-75
2023/08/20 13:07:44;;;;;;;;;2.00;1.00;;;;;;;;5038184;28;45410;-75
2023/08/20 13:10:10;;;;;;;;;1.00;1.00;;;;;;;;5047497;28;47412;-74
2023/08/20 13:12:36;;;;;;;;;2.50;2.00;;;;;;;;5043297;28;45386;-75
2023/08/20 13:15:03;;;;;;;;;2.40;2.40;;;;;;;;5050720;28;45430;-74
2023/08/20 13:17:29;;;;;;;;;2.00;2.00;;;;;;;;5037507;28;45487;-74
2023/08/20 13:19:54;;;;;;;;;1.00;1.00;;;;;;;;5044182;28;46385;-75
2023/08/20 13:22:19;;;;;;;;;1.25;1.25;;;;;;;;5039446;28;45367;-74
2023/08/20 13:24:44;;;;;;;;;2.75;2.00;;;;;;;;5047923;28;45500;-74
2023/08/20 13:27:09;;;;;;;;;2.00;1.00;;;;;;;;5041286;28;45476;-74
2023/08/20 13:29:35;;;;;;;;;1.50;1.50;;;;;;;;5043411;28;45477;-74
2023/08/20 13:32:00;;;;;;;;;0.25;0.25;;;;;;;;5029931;28;45352;-75
2023/08/20 13:34:26;;;;;;;;;2.00;2.00;;;;;;;;5037558;28;45442;-73
2023/08/20 13:36:51;;;;;;;;;2.25;2.00;;;;;;;;5036937;28;45498;-74
2023/08/20 13:39:18;;;;;;;;;3.25;1.00;;;;;;;;5042224;28;46646;-74
2023/08/20 13:41:43;;;;;;;;;1.40;0.80;;;;;;;;5036086;28;45320;-74
2023/08/20 13:44:08;;;;;;;;;1.25;1.25;;;;;;;;5047512;28;45223;-74
2023/08/20 13:46:34;;;;;;;;;0.75;0.75;;;;;;;;5045426;28;45487;-75
2023/08/20 13:48:59;;;;;;;;;0.00;0.00;;;;;;;;5047619;28;45655;-74
2023/08/20 13:51:25;;;;;;;;;1.75;1.75;;;;;;;;5048388;28;45402;-75
2023/08/20 13:53:50;;;;;;;;;1.00;1.00;;;;;;;;5037056;28;45507;-74
2023/08/20 13:56:15;;;;;;;;;1.00;1.00;;;;;;;;5039589;28;45442;-74
2023/08/20 13:58:41;;;;;;;;;0.75;0.00;;;;;;;;5036675;28;45456;-73
2023/08/20 14:01:06;;;;;;;;;1.50;1.00;;;;;;;;5040071;28;45354;-74
2023/08/20 14:03:31;;;;;;;;;1.75;0.50;;;;;;;;5024126;28;45441;-74
2023/08/20 14:05:57;;;;;;;;;1.00;1.00;;;;;;;;5019833;28;47162;-74
2023/08/20 14:08:22;;;;;;;;;0.50;0.50;;;;;;;;5027672;28;45629;-74
2023/08/20 14:10:47;;;;;;;;;0.00;0.00;;;;;;;;5052186;28;45408;-75
2023/08/20 14:13:12;;;;;;;;;0.25;0.25;;;;;;;;5040341;28;45454;-80
2023/08/20 14:15:37;;;;;;;;;1.00;1.00;;;;;;;;5054617;28;46146;-77
2023/08/20 14:18:03;;;;;;;;;1.00;1.00;;;;;;;;5039714;28;48582;-75
2023/08/20 14:20:28;;;;;;;;;0.00;0.00;;;;;;;;5040632;28;45284;-73
2023/08/20 14:22:54;;;;;;;;;2.50;1.00;;;;;;;;5033186;28;45319;-76
2023/08/20 14:25:19;;;;;;;;;1.00;1.00;;;;;;;;5045181;28;45514;-76
2023/08/20 14:27:44;;;;;;;;;2.00;0.00;;;;;;;;5036311;28;46365;-74
2023/08/20 14:30:10;;;;;;;;;1.00;0.50;;;;;;;;5041270;28;45421;-74
2023/08/20 14:32:35;;;;;;;;;0.40;0.40;;;;;;;;5034319;28;45431;-75
2023/08/20 14:35:01;;;;;;;;;1.50;0.00;;;;;;;;5047273;28;45308;-75
2023/08/20 14:37:26;;;;;;;;;1.00;1.00;;;;;;;;5029779;28;45634;-73
2023/08/20 14:39:51;;;;;;;;;0.00;0.00;;;;;;;;5041533;28;45385;-73
2023/08/20 14:42:16;;;;;;;;;0.00;0.00;;;;;;;;5029188;28;45335;-73
2023/08/20 14:44:41;;;;;;;;;0.75;0.00;;;;;;;;5042828;28;45851;-73
2023/08/20 14:47:06;;;;;;;;;0.00;0.00;;;;;;;;5030131;28;47666;-73
2023/08/20 14:49:32;;;;;;;;;0.50;0.00;;;;;;;;5049092;28;45269;-75
2023/08/20 14:51:57;;;;;;;;;0.00;0.00;;;;;;;;5036578;28;46272;-75
2023/08/20 14:54:22;;;;;;;;;0.00;0.00;;;;;;;;5049962;28;45623;-76
2023/08/20 14:56:47;;;;;;;;;0.00;0.00;;;;;;;;5035399;28;45374;-75
2023/08/20 14:59:13;;;;;;;;;0.75;0.75;;;;;;;;5043875;28;45464;-75
2023/08/20 15:01:38;;;;;;;;;0.00;0.00;;;;;;;;5038525;28;45279;-75
2023/08/20 15:04:03;;;;;;;;;0.00;0.00;;;;;;;;5034298;28;45522;-75
2023/08/20 15:06:29;;;;;;;;;0.00;0.00;;;;;;;;5033783;28;48434;-75
2023/08/20 15:08:54;;;;;;;;;0.00;0.00;;;;;;;;5025292;28;45328;-75
2023/08/20 15:11:19;;;;;;;;;0.00;0.00;;;;;;;;5036540;28;45236;-75
2023/08/20 15:13:45;;;;;;;;;2.00;1.25;;;;;;;;5027852;28;45737;-75
2023/08/20 15:16:10;;;;;;;;;0.00;0.00;;;;;;;;5035912;28;46872;-75
2023/08/20 15:18:35;;;;;;;;;0.25;0.25;;;;;;;;5027550;28;45512;-76
2023/08/20 15:21:01;;;;;;;;;0.00;0.00;;;;;;;;5038019;28;45433;-75
2023/08/20 15:23:27;;;;;;;;;0.75;0.25;;;;;;;;5030424;28;45673;-77
2023/08/20 15:25:53;;;;;;;;;3.00;3.00;;;;;;;;5036690;28;47094;-76
2023/08/20 15:28:18;;;;;;;;;0.00;0.00;;;;;;;;5029079;28;45336;-75
2023/08/20 15:30:44;;;;;;;;;0.00;0.00;;;;;;;;5037975;28;45555;-74
2023/08/20 15:33:09;;;;;;;;;0.00;0.00;;;;;;;;5030354;28;45648;-76
2023/08/20 15:35:34;;;;;;;;;0.00;0.00;;;;;;;;5036330;28;45268;-76
2023/08/20 15:37:59;;;;;;;;;3.25;2.75;;;;;;;;5031430;28;45563;-75
2023/08/20 15:40:24;;;;;;;;;1.00;1.00;;;;;;;;5035317;28;45381;-76
2023/08/20 15:42:50;;;;;;;;;0.00;0.00;;;;;;;;5036490;28;45509;-76
2023/08/20 15:45:15;;;;;;;;;0.00;0.00;;;;;;;;5036530;28;46135;-76
2023/08/20 15:47:40;;;;;;;;;0.00;0.00;;;;;;;;5040105;28;45406;-76
2023/08/20 15:50:06;;;;;;;;;0.25;0.25;;;;;;;;5037722;28;45403;-76
2023/08/20 15:52:31;;;;;;;;;0.00;0.00;;;;;;;;5039778;28;45627;-76
2023/08/20 15:54:56;;;;;;;;;0.75;0.00;;;;;;;;5036852;28;47983;-76
2023/08/20 15:57:22;;;;;;;;;0.00;0.00;;;;;;;;5036912;28;45341;-75
2023/08/20 15:59:47;;;;;;;;;0.00;0.00;;;;;;;;5039846;28;45563;-75
2023/08/20 16:02:13;;;;;;;;;0.00;0.00;;;;;;;;5042599;28;45559;-76
2023/08/20 16:04:38;;;;;;;;;0.50;0.50;;;;;;;;5040437;28;45494;-76
2023/08/20 16:07:03;;;;;;;;;0.00;0.00;;;;;;;;5041858;28;45624;-77
2023/08/20 16:09:29;;;;;;;;;0.00;0.00;;;;;;;;5041670;28;45318;-75
2023/08/20 16:11:54;;;;;;;;;1.00;0.00;;;;;;;;5041307;28;45522;-76
2023/08/20 16:14:19;;;;;;;;;0.00;0.00;;;;;;;;5034996;28;45350;-75
2023/08/20 16:16:45;;;;;;;;;0.00;0.00;;;;;;;;5039778;28;45335;-75
2023/08/20 16:19:10;;;;;;;;;1.00;0.00;;;;;;;;5032437;28;45256;-75
2023/08/20 16:21:35;;;;;;;;;0.00;0.00;;;;;;;;5040607;28;45374;-75
2023/08/20 16:24:00;;;;;;;;;0.00;0.00;;;;;;;;5032796;28;45493;-75
2023/08/20 16:26:26;;;;;;;;;1.25;0.00;;;;;;;;5042143;28;45394;-75
2023/08/20 16:28:51;;;;;;;;;0.00;0.00;;;;;;;;5034026;28;45450;-75
2023/08/20 16:31:16;;;;;;;;;0.00;0.00;;;;;;;;5040302;28;45473;-75
2023/08/20 16:33:41;;;;;;;;;0.00;0.00;;;;;;;;5025376;28;45582;-75
2023/08/20 16:36:06;;;;;;;;;0.00;0.00;;;;;;;;5038797;28;45303;-75
2023/08/20 16:38:32;;;;;;;;;0.00;0.00;;;;;;;;5029863;28;45460;-75
2023/08/20 16:41:02;;;;;;;;;0.00;0.00;;;;;;;;5040113;28;45443;-75
2023/08/20 16:43:27;;;;;;;;;0.00;0.00;;;;;;;;5027272;28;45702;-75
2023/08/20 16:45:58;;;;;;;;;0.00;0.00;;;;;;;;5037106;28;45446;-75
2023/08/20 16:48:23;;;;;;;;;0.00;0.00;;;;;;;;5031946;28;45375;-75
2023/08/20 16:50:48;;;;;;;;;0.00;0.00;;;;;;;;5037831;28;45512;-74
2023/08/20 16:53:15;;;;;;;;;2.50;2.25;;;;;;;;5032257;28;47192;-75
2023/08/20 16:55:41;;;;;;;;;0.00;0.00;;;;;;;;5051884;28;45200;-75
2023/08/20 16:58:06;;;;;;;;;0.00;0.00;;;;;;;;5035705;28;45467;-75
2023/08/20 17:00:34;;;;;;;;;0.00;0.00;;;;;;;;5036728;28;45953;-75
2023/08/20 17:03:00;;;;;;;;;0.20;0.00;;;;;;;;5033927;28;46231;-75
2023/08/20 17:05:25;;;;;;;;;3.50;3.50;;;;;;;;5048939;28;45403;-76
2023/08/20 17:07:50;;;;;;;;;1.75;0.25;;;;;;;;5039409;28;45378;-75
2023/08/20 17:10:17;;;;;;;;;0.00;0.00;;;;;;;;5039281;28;45843;-75
2023/08/20 17:12:42;;;;;;;;;0.00;0.00;;;;;;;;5029940;28;45608;-75
2023/08/20 17:15:08;;;;;;;;;0.00;0.00;;;;;;;;5040890;28;45321;-76
2023/08/20 17:17:33;;;;;;;;;0.00;0.00;;;;;;;;5032537;28;45384;-75
2023/08/20 17:19:58;;;;;;;;;0.00;0.00;;;;;;;;5039367;28;45257;-75
2023/08/20 17:22:23;;;;;;;;;0.00;0.00;;;;;;;;5036475;28;45461;-80
2023/08/20 17:24:48;;;;;;;;;0.00;0.00;;;;;;;;5043824;28;45356;-77
2023/08/20 17:27:14;;;;;;;;;0.75;0.75;;;;;;;;5039128;28;45456;-77
2023/08/20 17:29:39;;;;;;;;;0.00;0.00;;;;;;;;5045959;28;45274;-77
2023/08/20 17:32:04;;;;;;;;;0.25;0.25;;;;;;;;5036344;28;45594;-78
2023/08/20 17:34:31;;;;;;;;;0.50;0.50;;;;;;;;5042410;28;45507;-77
2023/08/20 17:36:56;;;;;;;;;0.20;0.20;;;;;;;;5039174;28;47275;-77
2023/08/20 17:39:21;;;;;;;;;1.00;1.00;;;;;;;;5047691;28;45637;-76
2023/08/20 17:41:46;;;;;;;;;1.25;1.00;;;;;;;;5040689;28;45537;-76
2023/08/20 17:44:12;;;;;;;;;0.25;0.25;;;;;;;;5044222;28;45380;-77
2023/08/20 17:46:47;;;;;;;;;0.00;0.00;;;;;;;;5042821;28;45462;-77
2023/08/20 17:49:12;;;;;;;;;0.00;0.00;;;;;;;;5047213;28;45334;-75
2023/08/20 17:51:38;;;;;;;;;0.50;0.50;;;;;;;;5044348;28;45327;-75
2023/08/20 17:54:04;;;;;;;;;0.25;0.25;;;;;;;;5048394;28;45319;-76
2023/08/20 17:56:29;;;;;;;;;0.00;0.00;;;;;;;;5042040;28;45469;-76
2023/08/20 17:58:55;;;;;;;;;3.00;2.00;;;;;;;;5036307;28;45460;-79
2023/08/20 18:01:20;;;;;;;;;2.75;2.50;;;;;;;;5037734;28;45753;-77
2023/08/20 18:03:45;;;;;;;;;3.50;2.00;;;;;;;;5033370;28;45312;-76
2023/08/20 18:06:10;;;;;;;;;1.00;1.00;;;;;;;;5040665;28;45170;-77
2023/08/20 18:08:35;;;;;;;;;0.00;0.00;;;;;;;;5034982;28;45567;-77
2023/08/20 18:11:01;;;;;;;;;0.25;0.25;;;;;;;;5044129;28;45662;-76
2023/08/20 18:13:26;;;;;;;;;1.00;1.00;;;;;;;;5041406;28;45481;-77
2023/08/20 18:15:51;;;;;;;;;0.00;0.00;;;;;;;;5054350;28;45539;-76
2023/08/20 18:18:16;;;;;;;;;0.50;0.00;;;;;;;;5040905;28;45581;-77
2023/08/20 18:20:41;;;;;;;;;0.00;0.00;;;;;;;;5044341;28;48015;-76
2023/08/20 18:23:06;;;;;;;;;0.50;0.50;;;;;;;;5038464;28;45396;-76
2023/08/20 18:25:32;;;;;;;;;0.00;0.00;;;;;;;;5045459;28;45320;-78
2023/08/20 18:27:57;;;;;;;;;0.75;0.75;;;;;;;;5038156;28;45412;-78
2023/08/20 18:30:22;;;;;;;;;2.00;1.00;;;;;;;;5047815;28;46920;-77
2023/08/20 18:32:48;;;;;;;;;0.25;0.25;;;;;;;;5036421;28;45493;-76
2023/08/20 18:35:13;;;;;;;;;1.75;1.75;;;;;;;;5049279;28;45310;-75
2023/08/20 18:37:38;;;;;;;;;0.00;0.00;;;;;;;;5037595;28;46471;-77
2023/08/20 18:40:07;;;;;;;;;0.50;0.50;;;;;;;;5049010;28;47728;-76
2023/08/20 18:42:33;;;;;;;;;2.20;2.20;;;;;;;;5033592;28;45228;-77
2023/08/20 18:44:58;;;;;;;;;1.50;0.25;;;;;;;;5034814;28;45201;-75
2023/08/20 18:47:23;;;;;;;;;1.00;1.00;;;;;;;;5033528;28;45522;-75
2023/08/20 18:49:48;;;;;;;;;5.00;3.00;;;;;;;;5045652;28;46431;-75
2023/08/20 18:52:13;;;;;;;;;0.25;0.25;;;;;;;;5032226;28;45240;-75
2023/08/20 18:54:42;;;;;;;;;2.50;2.25;;;;;;;;5042199;28;45166;-76
2023/08/20 18:57:09;;;;;;;;;2.20;2.00;;;;;;;;5039291;28;45474;-75
2023/08/20 18:59:35;;;;;;;;;1.80;1.80;;;;;;;;5052965;28;46156;-76
2023/08/20 19:02:00;;;;;;;;;1.25;1.00;;;;;;;;5039052;28;45891;-77
2023/08/20 19:04:25;;;;;;;;;1.00;1.00;;;;;;;;5042907;28;45473;-77
2023/08/20 19:06:51;;;;;;;;;5.75;3.00;;;;;;;;5051263;28;45548;-75
2023/08/20 19:09:16;;;;;;;;;1.60;1.60;;;;;;;;5052314;28;45435;-76
2023/08/20 19:11:42;;;;;;;;;2.00;2.00;;;;;;;;5054880;28;45233;-75
2023/08/20 19:14:07;;;;;;;;;4.00;4.00;;;;;;;;5053891;28;45425;-76
2023/08/20 19:16:32;;;;;;;;;2.50;2.00;;;;;;;;5055629;28;45407;-75
2023/08/20 19:18:57;;;;;;;;;2.50;2.50;;;;;;;;5047001;28;45341;-78
2023/08/20 19:21:22;;;;;;;;;4.00;1.50;;;;;;;;5050449;28;45343;-77
2023/08/20 19:23:49;;;;;;;;;2.75;1.75;;;;;;;;5044880;28;45567;-78
2023/08/20 19:26:14;;;;;;;;;2.00;1.40;;;;;;;;5049833;28;45615;-75
2023/08/20 19:28:39;;;;;;;;;1.00;1.00;;;;;;;;5040202;28;45273;-78
2023/08/20 19:31:05;;;;;;;;;1.00;1.00;;;;;;;;5049148;28;45414;-77
2023/08/20 19:33:33;;;;;;;;;2.50;2.00;;;;;;;;5041879;28;45208;-76
2023/08/20 19:36:03;;;;;;;;;1.20;1.20;;;;;;;;5049185;28;45358;-76
2023/08/20 19:38:28;;;;;;;;;1.60;0.80;;;;;;;;5043698;28;45558;-78
2023/08/20 19:40:55;;;;;;;;;2.00;2.00;;;;;;;;5050887;28;45316;-75
2023/08/20 19:43:20;;;;;;;;;1.80;0.80;;;;;;;;5042574;28;45232;-78
2023/08/20 19:45:46;;;;;;;;;2.00;2.00;;;;;;;;5048383;28;46656;-79
2023/08/20 19:48:11;;;;;;;;;2.00;2.00;;;;;;;;5040329;28;48097;-77
2023/08/20 19:50:37;;;;;;;;;4.00;2.00;;;;;;;;5047141;28;45857;-74
2023/08/20 19:53:02;;;;;;;;;2.25;2.00;;;;;;;;5047750;28;45551;-75
2023/08/20 19:55:27;;;;;;;;;1.25;1.25;;;;;;;;5045513;28;46412;-76
2023/08/20 19:57:52;;;;;;;;;2.25;0.75;;;;;;;;5051014;28;47485;-75
2023/08/20 20:00:18;;;;;;;;;2.50;0.75;;;;;;;;5046922;28;45436;-75
2023/08/20 20:02:43;;;;;;;;;0.25;0.25;;;;;;;;5044235;28;45534;-74
2023/08/20 20:05:09;;;;;;;;;1.50;1.50;;;;;;;;5045413;28;45694;-75
2023/08/20 20:07:35;;;;;;;;;1.00;1.00;;;;;;;;5044893;28;46287;-74
2023/08/20 20:10:01;;;;;;;;;1.00;1.00;;;;;;;;5045372;28;45349;-75
2023/08/20 20:12:26;;;;;;;;;2.00;1.00;;;;;;;;5045379;28;45349;-74
2023/08/20 20:14:51;;;;;;;;;1.25;0.75;;;;;;;;5050602;28;45406;-77
2023/08/20 20:17:16;;;;;;;;;0.75;0.75;;;;;;;;5047473;28;47146;-74
2023/08/20 20:19:41;;;;;;;;;3.25;2.25;;;;;;;;5039616;28;45265;-74
2023/08/20 20:22:07;;;;;;;;;0.50;0.50;;;;;;;;5037824;28;45452;-74
2023/08/20 20:24:32;;;;;;;;;3.25;1.50;;;;;;;;5038130;28;45334;-76
2023/08/20 20:26:57;;;;;;;;;2.00;2.00;;;;;;;;5050581;28;46351;-75
2023/08/20 20:29:22;;;;;;;;;1.50;0.00;;;;;;;;5039462;28;45281;-74
2023/08/20 20:31:47;;;;;;;;;2.00;2.00;;;;;;;;5048175;28;45442;-75
2023/08/20 20:34:13;;;;;;;;;1.25;1.25;;;;;;;;5028147;28;45461;-75
2023/08/20 20:36:38;;;;;;;;;1.75;1.00;;;;;;;;5038616;28;47000;-76
2023/08/20 20:39:03;;;;;;;;;1.50;1.50;;;;;;;;5026000;28;45241;-76
2023/08/20 20:41:28;;;;;;;;;2.00;2.00;;;;;;;;5026663;28;45293;-77
2023/08/20 20:43:54;;;;;;;;;0.50;0.50;;;;;;;;5032581;28;45367;-75
2023/08/20 20:46:21;;;;;;;;;3.50;2.00;;;;;;;;5040623;28;45489;-79
2023/08/20 20:48:47;;;;;;;;;2.20;1.60;;;;;;;;5034874;28;45394;-76
2023/08/20 20:51:12;;;;;;;;;1.00;1.00;;;;;;;;5043912;28;45593;-75